sensor_id;sensor_type;location;lat;lon;timestamp;P1;durP1;ratioP1;P2;durP2;ratioP2
45764;SDS011;31474;45.332;10.230;2023-02-22T00:00:35;131.90;;;61.05;;
45764;SDS011;31474;45.332;10.230;2023-02-22T00:05:39;122.43;;;58.78;;
45764;SDS011;31474;45.332;10.230;2023-02-22T00:08:09;125.60;;;61.03;;
45764;SDS011;31474;45.332;10.230;2023-02-22T00:10:36;128.93;;;57.72;;
45764;SDS011;31474;45.332;10.230;2023-02-22T00:13:05;138.50;;;61.97;;
45764;SDS011;31474;45.332;10.230;2023-02-22T00:15:32;136.55;;;59.45;;
45764;SDS011;31474;45.332;10.230;2023-02-22T00:17:59;135.60;;;60.33;;
45764;SDS011;31474;45.332;10.230;2023-02-22T00:20:25;140.85;;;61.22;;
45764;SDS011;31474;45.332;10.230;2023-02-22T00:22:51;135.90;;;58.75;;
45764;SDS011;31474;45.332;10.230;2023-02-22T00:25:18;124.93;;;59.67;;
45764;SDS011;31474;45.332;10.230;2023-02-22T00:27:46;137.52;;;60.15;;
45764;SDS011;31474;45.332;10.230;2023-02-22T00:30:13;126.95;;;58.40;;
45764;SDS011;31474;45.332;10.230;2023-02-22T00:32:47;134.80;;;57.65;;
45764;SDS011;31474;45.332;10.230;2023-02-22T00:35:17;124.97;;;59.10;;
45764;SDS011;31474;45.332;10.230;2023-02-22T00:37:48;133.73;;;59.40;;
45764;SDS011;31474;45.332;10.230;2023-02-22T00:40:17;120.55;;;57.47;;
45764;SDS011;31474;45.332;10.230;2023-02-22T00:42:47;141.93;;;61.25;;
45764;SDS011;31474;45.332;10.230;2023-02-22T00:45:19;137.15;;;58.00;;
45764;SDS011;31474;45.332;10.230;2023-02-22T00:47:46;115.82;;;53.97;;
45764;SDS011;31474;45.332;10.230;2023-02-22T00:50:12;120.80;;;56.05;;
45764;SDS011;31474;45.332;10.230;2023-02-22T00:52:38;123.93;;;54.47;;
45764;SDS011;31474;45.332;10.230;2023-02-22T00:55:04;121.18;;;55.50;;
45764;SDS011;31474;45.332;10.230;2023-02-22T00:57:31;133.48;;;56.78;;
45764;SDS011;31474;45.332;10.230;2023-02-22T01:00:04;121.32;;;56.10;;
45764;SDS011;31474;45.332;10.230;2023-02-22T01:02:39;124.97;;;55.53;;
45764;SDS011;31474;45.332;10.230;2023-02-22T01:05:07;111.90;;;53.70;;
45764;SDS011;31474;45.332;10.230;2023-02-22T01:07:36;122.03;;;53.53;;
45764;SDS011;31474;45.332;10.230;2023-02-22T01:10:03;121.43;;;54.67;;
45764;SDS011;31474;45.332;10.230;2023-02-22T01:12:30;116.20;;;52.13;;
45764;SDS011;31474;45.332;10.230;2023-02-22T01:14:55;116.10;;;52.83;;
45764;SDS011;31474;45.332;10.230;2023-02-22T01:17:25;124.82;;;56.17;;
45764;SDS011;31474;45.332;10.230;2023-02-22T01:19:51;131.27;;;56.17;;
45764;SDS011;31474;45.332;10.230;2023-02-22T01:22:18;124.00;;;53.97;;
45764;SDS011;31474;45.332;10.230;2023-02-22T01:24:45;120.70;;;52.92;;
45764;SDS011;31474;45.332;10.230;2023-02-22T01:27:15;127.68;;;55.47;;
45764;SDS011;31474;45.332;10.230;2023-02-22T01:29:41;119.70;;;55.20;;
45764;SDS011;31474;45.332;10.230;2023-02-22T01:32:07;116.00;;;57.55;;
45764;SDS011;31474;45.332;10.230;2023-02-22T01:34:33;118.93;;;54.88;;
45764;SDS011;31474;45.332;10.230;2023-02-22T01:36:59;122.63;;;53.10;;
45764;SDS011;31474;45.332;10.230;2023-02-22T01:39:30;123.43;;;54.95;;
45764;SDS011;31474;45.332;10.230;2023-02-22T01:41:56;123.07;;;52.95;;
45764;SDS011;31474;45.332;10.230;2023-02-22T01:46:55;112.97;;;52.92;;
45764;SDS011;31474;45.332;10.230;2023-02-22T01:49:23;131.65;;;53.97;;
45764;SDS011;31474;45.332;10.230;2023-02-22T01:51:52;114.75;;;52.58;;
45764;SDS011;31474;45.332;10.230;2023-02-22T01:56:58;111.78;;;52.97;;
45764;SDS011;31474;45.332;10.230;2023-02-22T01:59:27;115.00;;;51.50;;
45764;SDS011;31474;45.332;10.230;2023-02-22T02:01:57;118.13;;;53.65;;
45764;SDS011;31474;45.332;10.230;2023-02-22T02:04:24;114.35;;;54.92;;
45764;SDS011;31474;45.332;10.230;2023-02-22T02:06:51;119.88;;;53.85;;
45764;SDS011;31474;45.332;10.230;2023-02-22T02:09:33;122.68;;;55.55;;
45764;SDS011;31474;45.332;10.230;2023-02-22T02:12:04;122.60;;;54.15;;
45764;SDS011;31474;45.332;10.230;2023-02-22T02:14:32;119.82;;;55.58;;
45764;SDS011;31474;45.332;10.230;2023-02-22T02:17:04;125.30;;;56.25;;
45764;SDS011;31474;45.332;10.230;2023-02-22T02:28:17;124.95;;;53.17;;
45764;SDS011;31474;45.332;10.230;2023-02-22T02:34:04;104.70;;;51.38;;
45764;SDS011;31474;45.332;10.230;2023-02-22T02:36:42;117.40;;;53.78;;
45764;SDS011;31474;45.332;10.230;2023-02-22T02:39:38;109.60;;;52.40;;
45764;SDS011;31474;45.332;10.230;2023-02-22T02:42:27;122.88;;;54.20;;
45764;SDS011;31474;45.332;10.230;2023-02-22T02:45:02;121.55;;;52.83;;
45764;SDS011;31474;45.332;10.230;2023-02-22T02:47:37;113.28;;;52.53;;
45764;SDS011;31474;45.332;10.230;2023-02-22T02:52:38;117.55;;;52.70;;
45764;SDS011;31474;45.332;10.230;2023-02-22T02:55:05;118.80;;;49.97;;
45764;SDS011;31474;45.332;10.230;2023-02-22T02:57:33;120.28;;;52.65;;
45764;SDS011;31474;45.332;10.230;2023-02-22T02:59:58;112.95;;;50.88;;
45764;SDS011;31474;45.332;10.230;2023-02-22T03:11:02;116.93;;;52.42;;
45764;SDS011;31474;45.332;10.230;2023-02-22T03:13:40;104.70;;;49.90;;
45764;SDS011;31474;45.332;10.230;2023-02-22T03:19:26;113.18;;;52.05;;
45764;SDS011;31474;45.332;10.230;2023-02-22T03:22:05;102.35;;;49.45;;
45764;SDS011;31474;45.332;10.230;2023-02-22T03:27:36;119.90;;;49.55;;
45764;SDS011;31474;45.332;10.230;2023-02-22T03:30:12;115.28;;;50.00;;
45764;SDS011;31474;45.332;10.230;2023-02-22T03:32:59;116.18;;;48.58;;
45764;SDS011;31474;45.332;10.230;2023-02-22T03:35:38;112.70;;;51.90;;
45764;SDS011;31474;45.332;10.230;2023-02-22T03:38:15;111.03;;;51.20;;
45764;SDS011;31474;45.332;10.230;2023-02-22T03:40:44;122.63;;;50.60;;
45764;SDS011;31474;45.332;10.230;2023-02-22T03:43:20;109.63;;;50.95;;
45764;SDS011;31474;45.332;10.230;2023-02-22T03:45:49;119.80;;;52.20;;
45764;SDS011;31474;45.332;10.230;2023-02-22T03:50:44;121.82;;;52.20;;
45764;SDS011;31474;45.332;10.230;2023-02-22T03:53:10;107.47;;;48.95;;
45764;SDS011;31474;45.332;10.230;2023-02-22T03:55:36;119.45;;;51.40;;
45764;SDS011;31474;45.332;10.230;2023-02-22T03:58:05;115.47;;;52.38;;
45764;SDS011;31474;45.332;10.230;2023-02-22T04:00:35;122.30;;;51.55;;
45764;SDS011;31474;45.332;10.230;2023-02-22T04:03:01;115.88;;;54.30;;
45764;SDS011;31474;45.332;10.230;2023-02-22T04:05:27;109.15;;;50.95;;
45764;SDS011;31474;45.332;10.230;2023-02-22T04:07:54;106.72;;;49.38;;
45764;SDS011;31474;45.332;10.230;2023-02-22T04:10:21;113.78;;;52.03;;
45764;SDS011;31474;45.332;10.230;2023-02-22T04:12:47;105.22;;;50.13;;
45764;SDS011;31474;45.332;10.230;2023-02-22T04:15:16;112.13;;;50.28;;
45764;SDS011;31474;45.332;10.230;2023-02-22T04:17:44;115.47;;;51.80;;
45764;SDS011;31474;45.332;10.230;2023-02-22T04:20:09;116.78;;;54.40;;
45764;SDS011;31474;45.332;10.230;2023-02-22T04:22:37;102.18;;;47.50;;
45764;SDS011;31474;45.332;10.230;2023-02-22T04:25:03;100.68;;;49.25;;
45764;SDS011;31474;45.332;10.230;2023-02-22T04:27:29;110.82;;;51.55;;
45764;SDS011;31474;45.332;10.230;2023-02-22T04:29:55;113.82;;;50.00;;
45764;SDS011;31474;45.332;10.230;2023-02-22T04:32:21;106.30;;;50.55;;
45764;SDS011;31474;45.332;10.230;2023-02-22T04:34:46;115.28;;;51.22;;
45764;SDS011;31474;45.332;10.230;2023-02-22T04:37:12;109.93;;;52.50;;
45764;SDS011;31474;45.332;10.230;2023-02-22T04:39:37;113.00;;;51.25;;
45764;SDS011;31474;45.332;10.230;2023-02-22T04:42:03;115.05;;;50.08;;
45764;SDS011;31474;45.332;10.230;2023-02-22T04:44:29;107.47;;;50.65;;
45764;SDS011;31474;45.332;10.230;2023-02-22T04:46:55;110.30;;;50.08;;
45764;SDS011;31474;45.332;10.230;2023-02-22T04:49:21;113.25;;;53.92;;
45764;SDS011;31474;45.332;10.230;2023-02-22T04:51:47;116.40;;;50.90;;
45764;SDS011;31474;45.332;10.230;2023-02-22T04:54:13;112.45;;;52.70;;
45764;SDS011;31474;45.332;10.230;2023-02-22T04:56:41;116.05;;;52.80;;
45764;SDS011;31474;45.332;10.230;2023-02-22T04:59:07;111.50;;;49.20;;
45764;SDS011;31474;45.332;10.230;2023-02-22T05:01:33;106.63;;;49.85;;
45764;SDS011;31474;45.332;10.230;2023-02-22T05:04:00;109.82;;;51.13;;
45764;SDS011;31474;45.332;10.230;2023-02-22T05:06:27;117.57;;;51.45;;
45764;SDS011;31474;45.332;10.230;2023-02-22T05:08:53;127.72;;;52.60;;
45764;SDS011;31474;45.332;10.230;2023-02-22T05:11:18;114.03;;;50.75;;
45764;SDS011;31474;45.332;10.230;2023-02-22T05:13:44;105.07;;;50.92;;
45764;SDS011;31474;45.332;10.230;2023-02-22T05:16:10;116.00;;;49.53;;
45764;SDS011;31474;45.332;10.230;2023-02-22T05:18:36;104.80;;;49.92;;
45764;SDS011;31474;45.332;10.230;2023-02-22T05:21:02;116.25;;;54.22;;
45764;SDS011;31474;45.332;10.230;2023-02-22T05:23:27;110.30;;;50.58;;
45764;SDS011;31474;45.332;10.230;2023-02-22T05:25:53;108.13;;;48.08;;
45764;SDS011;31474;45.332;10.230;2023-02-22T05:28:19;110.50;;;50.33;;
45764;SDS011;31474;45.332;10.230;2023-02-22T05:30:44;117.72;;;51.08;;
45764;SDS011;31474;45.332;10.230;2023-02-22T05:33:10;109.97;;;50.85;;
45764;SDS011;31474;45.332;10.230;2023-02-22T05:35:37;109.15;;;49.35;;
45764;SDS011;31474;45.332;10.230;2023-02-22T05:38:03;107.43;;;49.35;;
45764;SDS011;31474;45.332;10.230;2023-02-22T05:40:29;109.30;;;50.08;;
45764;SDS011;31474;45.332;10.230;2023-02-22T05:42:56;110.45;;;50.83;;
45764;SDS011;31474;45.332;10.230;2023-02-22T05:45:23;101.88;;;50.50;;
45764;SDS011;31474;45.332;10.230;2023-02-22T05:47:50;105.07;;;52.28;;
45764;SDS011;31474;45.332;10.230;2023-02-22T05:50:16;109.20;;;49.20;;
45764;SDS011;31474;45.332;10.230;2023-02-22T05:52:43;117.38;;;51.08;;
45764;SDS011;31474;45.332;10.230;2023-02-22T05:55:11;106.50;;;51.50;;
45764;SDS011;31474;45.332;10.230;2023-02-22T05:57:38;116.45;;;51.35;;
45764;SDS011;31474;45.332;10.230;2023-02-22T06:00:04;115.75;;;50.08;;
45764;SDS011;31474;45.332;10.230;2023-02-22T06:02:32;111.40;;;47.80;;
45764;SDS011;31474;45.332;10.230;2023-02-22T06:04:58;116.22;;;52.03;;
45764;SDS011;31474;45.332;10.230;2023-02-22T06:07:24;112.40;;;49.35;;
45764;SDS011;31474;45.332;10.230;2023-02-22T06:09:49;115.53;;;49.83;;
45764;SDS011;31474;45.332;10.230;2023-02-22T06:12:15;105.03;;;49.15;;
45764;SDS011;31474;45.332;10.230;2023-02-22T06:14:44;118.05;;;49.05;;
45764;SDS011;31474;45.332;10.230;2023-02-22T06:17:10;109.47;;;52.08;;
45764;SDS011;31474;45.332;10.230;2023-02-22T06:19:37;109.57;;;51.47;;
45764;SDS011;31474;45.332;10.230;2023-02-22T06:22:04;107.72;;;50.65;;
45764;SDS011;31474;45.332;10.230;2023-02-22T06:24:31;118.13;;;51.70;;
45764;SDS011;31474;45.332;10.230;2023-02-22T06:26:57;108.50;;;50.88;;
45764;SDS011;31474;45.332;10.230;2023-02-22T06:29:25;115.07;;;53.65;;
45764;SDS011;31474;45.332;10.230;2023-02-22T06:31:52;118.05;;;55.40;;
45764;SDS011;31474;45.332;10.230;2023-02-22T06:34:18;122.82;;;56.80;;
45764;SDS011;31474;45.332;10.230;2023-02-22T06:36:43;115.50;;;51.70;;
45764;SDS011;31474;45.332;10.230;2023-02-22T06:39:12;126.93;;;53.83;;
45764;SDS011;31474;45.332;10.230;2023-02-22T06:41:39;122.38;;;53.90;;
45764;SDS011;31474;45.332;10.230;2023-02-22T06:44:06;129.85;;;55.45;;
45764;SDS011;31474;45.332;10.230;2023-02-22T06:46:32;121.30;;;53.58;;
45764;SDS011;31474;45.332;10.230;2023-02-22T06:48:59;124.43;;;54.70;;
45764;SDS011;31474;45.332;10.230;2023-02-22T06:51:25;112.78;;;49.35;;
45764;SDS011;31474;45.332;10.230;2023-02-22T06:53:51;109.70;;;49.28;;
45764;SDS011;31474;45.332;10.230;2023-02-22T06:56:17;110.38;;;52.58;;
45764;SDS011;31474;45.332;10.230;2023-02-22T06:58:43;108.13;;;51.83;;
45764;SDS011;31474;45.332;10.230;2023-02-22T07:01:09;121.43;;;54.05;;
45764;SDS011;31474;45.332;10.230;2023-02-22T07:03:35;109.15;;;51.03;;
45764;SDS011;31474;45.332;10.230;2023-02-22T07:06:01;108.60;;;49.30;;
45764;SDS011;31474;45.332;10.230;2023-02-22T07:08:28;129.23;;;53.97;;
45764;SDS011;31474;45.332;10.230;2023-02-22T07:10:54;118.03;;;53.58;;
45764;SDS011;31474;45.332;10.230;2023-02-22T07:13:20;109.57;;;52.00;;
45764;SDS011;31474;45.332;10.230;2023-02-22T07:15:46;125.85;;;56.22;;
45764;SDS011;31474;45.332;10.230;2023-02-22T07:18:12;118.60;;;53.63;;
45764;SDS011;31474;45.332;10.230;2023-02-22T07:20:40;119.30;;;53.65;;
45764;SDS011;31474;45.332;10.230;2023-02-22T07:23:06;107.38;;;51.00;;
45764;SDS011;31474;45.332;10.230;2023-02-22T07:25:32;115.05;;;52.97;;
45764;SDS011;31474;45.332;10.230;2023-02-22T07:27:57;118.80;;;55.55;;
45764;SDS011;31474;45.332;10.230;2023-02-22T07:30:28;127.88;;;56.05;;
45764;SDS011;31474;45.332;10.230;2023-02-22T07:32:55;129.27;;;55.28;;
45764;SDS011;31474;45.332;10.230;2023-02-22T07:35:23;122.82;;;53.42;;
45764;SDS011;31474;45.332;10.230;2023-02-22T07:37:49;132.45;;;56.47;;
45764;SDS011;31474;45.332;10.230;2023-02-22T07:40:16;114.63;;;55.05;;
45764;SDS011;31474;45.332;10.230;2023-02-22T07:42:49;113.72;;;53.65;;
45764;SDS011;31474;45.332;10.230;2023-02-22T07:45:24;119.25;;;52.88;;
45764;SDS011;31474;45.332;10.230;2023-02-22T07:47:51;117.10;;;52.92;;
45764;SDS011;31474;45.332;10.230;2023-02-22T07:50:18;123.28;;;54.42;;
45764;SDS011;31474;45.332;10.230;2023-02-22T07:52:48;118.40;;;51.95;;
45764;SDS011;31474;45.332;10.230;2023-02-22T07:55:16;133.85;;;55.53;;
45764;SDS011;31474;45.332;10.230;2023-02-22T07:57:47;129.82;;;57.40;;
45764;SDS011;31474;45.332;10.230;2023-02-22T08:00:15;122.75;;;54.00;;
45764;SDS011;31474;45.332;10.230;2023-02-22T08:02:45;129.80;;;57.83;;
45764;SDS011;31474;45.332;10.230;2023-02-22T08:05:12;122.63;;;51.92;;
45764;SDS011;31474;45.332;10.230;2023-02-22T08:07:39;132.13;;;57.83;;
45764;SDS011;31474;45.332;10.230;2023-02-22T08:10:05;121.93;;;55.10;;
45764;SDS011;31474;45.332;10.230;2023-02-22T08:12:33;126.68;;;54.05;;
45764;SDS011;31474;45.332;10.230;2023-02-22T08:15:00;121.82;;;56.65;;
45764;SDS011;31474;45.332;10.230;2023-02-22T08:17:26;121.43;;;53.60;;
45764;SDS011;31474;45.332;10.230;2023-02-22T08:19:52;133.00;;;56.83;;
45764;SDS011;31474;45.332;10.230;2023-02-22T08:22:17;122.63;;;57.08;;
45764;SDS011;31474;45.332;10.230;2023-02-22T08:24:43;118.72;;;54.85;;
45764;SDS011;31474;45.332;10.230;2023-02-22T08:27:09;118.63;;;54.25;;
45764;SDS011;31474;45.332;10.230;2023-02-22T08:29:35;124.13;;;54.58;;
45764;SDS011;31474;45.332;10.230;2023-02-22T08:32:00;116.47;;;52.78;;
45764;SDS011;31474;45.332;10.230;2023-02-22T08:34:26;126.40;;;55.85;;
45764;SDS011;31474;45.332;10.230;2023-02-22T08:36:52;128.57;;;54.53;;
45764;SDS011;31474;45.332;10.230;2023-02-22T08:39:18;124.18;;;53.92;;
45764;SDS011;31474;45.332;10.230;2023-02-22T08:41:44;121.45;;;55.90;;
45764;SDS011;31474;45.332;10.230;2023-02-22T08:44:10;120.55;;;55.00;;
45764;SDS011;31474;45.332;10.230;2023-02-22T08:46:36;119.53;;;55.75;;
45764;SDS011;31474;45.332;10.230;2023-02-22T08:49:02;115.22;;;53.50;;
45764;SDS011;31474;45.332;10.230;2023-02-22T08:51:33;131.05;;;55.92;;
45764;SDS011;31474;45.332;10.230;2023-02-22T08:54:00;124.90;;;54.58;;
45764;SDS011;31474;45.332;10.230;2023-02-22T08:56:27;121.72;;;54.83;;
45764;SDS011;31474;45.332;10.230;2023-02-22T08:58:55;122.97;;;55.60;;
45764;SDS011;31474;45.332;10.230;2023-02-22T09:01:24;122.80;;;54.00;;
45764;SDS011;31474;45.332;10.230;2023-02-22T09:03:50;125.93;;;55.47;;
45764;SDS011;31474;45.332;10.230;2023-02-22T09:06:16;106.40;;;52.85;;
45764;SDS011;31474;45.332;10.230;2023-02-22T09:08:42;114.03;;;52.42;;
45764;SDS011;31474;45.332;10.230;2023-02-22T09:11:08;116.38;;;53.72;;
45764;SDS011;31474;45.332;10.230;2023-02-22T09:13:34;117.05;;;52.10;;
45764;SDS011;31474;45.332;10.230;2023-02-22T09:15:59;123.60;;;55.42;;
45764;SDS011;31474;45.332;10.230;2023-02-22T09:18:26;123.63;;;52.45;;
45764;SDS011;31474;45.332;10.230;2023-02-22T09:20:52;114.03;;;54.13;;
45764;SDS011;31474;45.332;10.230;2023-02-22T09:23:18;117.70;;;53.83;;
45764;SDS011;31474;45.332;10.230;2023-02-22T09:25:48;113.75;;;53.67;;
45764;SDS011;31474;45.332;10.230;2023-02-22T09:28:14;119.03;;;54.25;;
45764;SDS011;31474;45.332;10.230;2023-02-22T09:30:39;118.85;;;50.95;;
45764;SDS011;31474;45.332;10.230;2023-02-22T09:33:09;107.65;;;51.75;;
45764;SDS011;31474;45.332;10.230;2023-02-22T09:35:37;108.28;;;54.03;;
45764;SDS011;31474;45.332;10.230;2023-02-22T09:38:06;121.53;;;52.63;;
45764;SDS011;31474;45.332;10.230;2023-02-22T09:40:33;107.50;;;49.20;;
45764;SDS011;31474;45.332;10.230;2023-02-22T09:45:50;114.22;;;52.30;;
45764;SDS011;31474;45.332;10.230;2023-02-22T09:48:21;115.78;;;50.13;;
45764;SDS011;31474;45.332;10.230;2023-02-22T09:50:47;113.53;;;52.22;;
45764;SDS011;31474;45.332;10.230;2023-02-22T09:56:08;106.85;;;48.78;;
45764;SDS011;31474;45.332;10.230;2023-02-22T09:58:43;108.65;;;52.03;;
45764;SDS011;31474;45.332;10.230;2023-02-22T10:01:24;117.40;;;54.00;;
45764;SDS011;31474;45.332;10.230;2023-02-22T10:04:19;110.57;;;50.10;;
45764;SDS011;31474;45.332;10.230;2023-02-22T10:09:30;106.30;;;50.67;;
45764;SDS011;31474;45.332;10.230;2023-02-22T10:12:04;106.82;;;49.70;;
45764;SDS011;31474;45.332;10.230;2023-02-22T10:17:49;109.80;;;49.53;;
45764;SDS011;31474;45.332;10.230;2023-02-22T10:23:12;108.47;;;50.00;;
45764;SDS011;31474;45.332;10.230;2023-02-22T10:25:48;102.28;;;50.13;;
45764;SDS011;31474;45.332;10.230;2023-02-22T10:28:37;110.32;;;49.90;;
45764;SDS011;31474;45.332;10.230;2023-02-22T10:31:20;99.57;;;47.45;;
45764;SDS011;31474;45.332;10.230;2023-02-22T10:33:55;105.68;;;47.63;;
45764;SDS011;31474;45.332;10.230;2023-02-22T10:36:31;101.93;;;46.55;;
45764;SDS011;31474;45.332;10.230;2023-02-22T10:39:06;103.68;;;47.05;;
45764;SDS011;31474;45.332;10.230;2023-02-22T10:41:39;108.20;;;52.00;;
45764;SDS011;31474;45.332;10.230;2023-02-22T10:44:11;107.03;;;49.08;;
45764;SDS011;31474;45.332;10.230;2023-02-22T10:46:37;101.85;;;47.95;;
45764;SDS011;31474;45.332;10.230;2023-02-22T10:49:05;103.38;;;49.05;;
45764;SDS011;31474;45.332;10.230;2023-02-22T10:51:32;105.28;;;49.47;;
45764;SDS011;31474;45.332;10.230;2023-02-22T10:54:08;107.70;;;49.97;;
45764;SDS011;31474;45.332;10.230;2023-02-22T10:56:45;108.10;;;47.30;;
45764;SDS011;31474;45.332;10.230;2023-02-22T11:02:29;109.13;;;50.50;;
45764;SDS011;31474;45.332;10.230;2023-02-22T11:04:58;98.55;;;48.97;;
45764;SDS011;31474;45.332;10.230;2023-02-22T11:07:27;106.68;;;48.58;;
45764;SDS011;31474;45.332;10.230;2023-02-22T11:09:57;108.43;;;51.28;;
45764;SDS011;31474;45.332;10.230;2023-02-22T11:14:53;104.70;;;51.42;;
45764;SDS011;31474;45.332;10.230;2023-02-22T11:17:23;110.68;;;50.42;;
45764;SDS011;31474;45.332;10.230;2023-02-22T11:19:58;108.82;;;52.17;;
45764;SDS011;31474;45.332;10.230;2023-02-22T11:22:32;113.80;;;50.55;;
45764;SDS011;31474;45.332;10.230;2023-02-22T11:25:05;103.57;;;50.00;;
45764;SDS011;31474;45.332;10.230;2023-02-22T11:27:41;103.53;;;50.70;;
45764;SDS011;31474;45.332;10.230;2023-02-22T11:30:30;112.85;;;52.22;;
45764;SDS011;31474;45.332;10.230;2023-02-22T11:35:51;110.43;;;51.65;;
45764;SDS011;31474;45.332;10.230;2023-02-22T11:38:25;108.03;;;49.38;;
45764;SDS011;31474;45.332;10.230;2023-02-22T11:43:32;102.25;;;49.80;;
45764;SDS011;31474;45.332;10.230;2023-02-22T11:46:00;110.88;;;50.63;;
45764;SDS011;31474;45.332;10.230;2023-02-22T11:48:29;102.18;;;50.42;;
45764;SDS011;31474;45.332;10.230;2023-02-22T11:51:13;102.63;;;50.50;;
45764;SDS011;31474;45.332;10.230;2023-02-22T11:57:03;108.45;;;50.50;;
45764;SDS011;31474;45.332;10.230;2023-02-22T12:08:24;104.43;;;46.38;;
45764;SDS011;31474;45.332;10.230;2023-02-22T12:13:58;94.82;;;48.50;;
45764;SDS011;31474;45.332;10.230;2023-02-22T12:17:03;96.70;;;45.17;;
45764;SDS011;31474;45.332;10.230;2023-02-22T12:19:43;89.05;;;43.72;;
45764;SDS011;31474;45.332;10.230;2023-02-22T12:22:17;97.05;;;45.58;;
45764;SDS011;31474;45.332;10.230;2023-02-22T12:24:57;86.75;;;42.00;;
45764;SDS011;31474;45.332;10.230;2023-02-22T12:30:21;90.90;;;43.85;;
45764;SDS011;31474;45.332;10.230;2023-02-22T12:33:02;96.50;;;46.28;;
45764;SDS011;31474;45.332;10.230;2023-02-22T12:35:33;82.60;;;42.13;;
45764;SDS011;31474;45.332;10.230;2023-02-22T12:38:09;85.72;;;43.05;;
45764;SDS011;31474;45.332;10.230;2023-02-22T12:41:02;77.57;;;41.97;;
45764;SDS011;31474;45.332;10.230;2023-02-22T12:43:38;87.38;;;43.08;;
45764;SDS011;31474;45.332;10.230;2023-02-22T12:51:43;80.25;;;41.63;;
45764;SDS011;31474;45.332;10.230;2023-02-22T12:56:58;89.80;;;43.33;;
45764;SDS011;31474;45.332;10.230;2023-02-22T12:59:52;81.32;;;44.00;;
45764;SDS011;31474;45.332;10.230;2023-02-22T13:05:13;83.22;;;42.83;;
45764;SDS011;31474;45.332;10.230;2023-02-22T13:07:55;85.18;;;42.13;;
45764;SDS011;31474;45.332;10.230;2023-02-22T13:10:37;84.53;;;41.70;;
45764;SDS011;31474;45.332;10.230;2023-02-22T13:22:16;74.32;;;36.90;;
45764;SDS011;31474;45.332;10.230;2023-02-22T13:24:58;81.80;;;39.97;;
45764;SDS011;31474;45.332;10.230;2023-02-22T13:27:31;76.45;;;37.15;;
45764;SDS011;31474;45.332;10.230;2023-02-22T13:30:03;75.30;;;36.55;;
45764;SDS011;31474;45.332;10.230;2023-02-22T13:43:41;62.20;;;31.98;;
45764;SDS011;31474;45.332;10.230;2023-02-22T13:46:27;64.00;;;33.42;;
45764;SDS011;31474;45.332;10.230;2023-02-22T13:56:58;69.40;;;35.05;;
45764;SDS011;31474;45.332;10.230;2023-02-22T13:59:33;67.63;;;33.83;;
45764;SDS011;31474;45.332;10.230;2023-02-22T14:02:02;68.88;;;34.65;;
45764;SDS011;31474;45.332;10.230;2023-02-22T14:06:55;65.55;;;35.92;;
45764;SDS011;31474;45.332;10.230;2023-02-22T14:15:12;63.72;;;34.53;;
45764;SDS011;31474;45.332;10.230;2023-02-22T14:17:43;73.47;;;35.50;;
45764;SDS011;31474;45.332;10.230;2023-02-22T14:22:41;68.78;;;36.53;;
45764;SDS011;31474;45.332;10.230;2023-02-22T14:31:12;70.13;;;36.78;;
45764;SDS011;31474;45.332;10.230;2023-02-22T14:42:13;69.05;;;34.90;;
45764;SDS011;31474;45.332;10.230;2023-02-22T14:44:56;79.82;;;39.13;;
45764;SDS011;31474;45.332;10.230;2023-02-22T14:47:44;72.50;;;35.33;;
45764;SDS011;31474;45.332;10.230;2023-02-22T14:50:19;76.82;;;35.92;;
45764;SDS011;31474;45.332;10.230;2023-02-22T14:53:00;72.10;;;34.95;;
45764;SDS011;31474;45.332;10.230;2023-02-22T14:55:29;77.70;;;39.75;;
45764;SDS011;31474;45.332;10.230;2023-02-22T14:57:58;83.35;;;39.58;;
45764;SDS011;31474;45.332;10.230;2023-02-22T15:00:47;77.85;;;39.20;;
45764;SDS011;31474;45.332;10.230;2023-02-22T15:06:01;83.35;;;41.42;;
45764;SDS011;31474;45.332;10.230;2023-02-22T15:08:39;74.93;;;39.30;;
45764;SDS011;31474;45.332;10.230;2023-02-22T15:11:45;78.68;;;38.10;;
45764;SDS011;31474;45.332;10.230;2023-02-22T15:14:24;85.68;;;39.55;;
45764;SDS011;31474;45.332;10.230;2023-02-22T15:16:57;82.72;;;40.63;;
45764;SDS011;31474;45.332;10.230;2023-02-22T15:19:29;75.55;;;39.60;;
45764;SDS011;31474;45.332;10.230;2023-02-22T15:21:57;75.55;;;38.33;;
45764;SDS011;31474;45.332;10.230;2023-02-22T15:24:29;84.32;;;39.67;;
45764;SDS011;31474;45.332;10.230;2023-02-22T15:27:12;76.82;;;40.33;;
45764;SDS011;31474;45.332;10.230;2023-02-22T15:32:33;81.18;;;39.17;;
45764;SDS011;31474;45.332;10.230;2023-02-22T15:35:14;83.63;;;42.05;;
45764;SDS011;31474;45.332;10.230;2023-02-22T15:37:40;89.03;;;41.40;;
45764;SDS011;31474;45.332;10.230;2023-02-22T15:40:11;85.05;;;41.25;;
45764;SDS011;31474;45.332;10.230;2023-02-22T15:42:47;90.25;;;45.60;;
45764;SDS011;31474;45.332;10.230;2023-02-22T15:45:22;87.95;;;42.83;;
45764;SDS011;31474;45.332;10.230;2023-02-22T15:47:52;90.10;;;43.30;;
45764;SDS011;31474;45.332;10.230;2023-02-22T15:50:23;90.60;;;44.60;;
45764;SDS011;31474;45.332;10.230;2023-02-22T15:52:59;92.68;;;46.58;;
45764;SDS011;31474;45.332;10.230;2023-02-22T15:55:34;102.35;;;48.75;;
45764;SDS011;31474;45.332;10.230;2023-02-22T16:06:13;93.55;;;45.33;;
45764;SDS011;31474;45.332;10.230;2023-02-22T16:08:41;94.05;;;46.60;;
45764;SDS011;31474;45.332;10.230;2023-02-22T16:11:19;95.53;;;45.63;;
45764;SDS011;31474;45.332;10.230;2023-02-22T16:13:58;89.63;;;42.95;;
45764;SDS011;31474;45.332;10.230;2023-02-22T16:16:30;93.95;;;43.85;;
45764;SDS011;31474;45.332;10.230;2023-02-22T16:21:55;86.22;;;43.45;;
45764;SDS011;31474;45.332;10.230;2023-02-22T16:24:33;85.80;;;43.20;;
45764;SDS011;31474;45.332;10.230;2023-02-22T16:27:00;90.43;;;44.45;;
45764;SDS011;31474;45.332;10.230;2023-02-22T16:29:28;94.25;;;43.78;;
45764;SDS011;31474;45.332;10.230;2023-02-22T16:31:54;82.07;;;43.92;;
45764;SDS011;31474;45.332;10.230;2023-02-22T16:34:20;98.90;;;44.03;;
45764;SDS011;31474;45.332;10.230;2023-02-22T16:36:46;87.15;;;42.65;;
45764;SDS011;31474;45.332;10.230;2023-02-22T16:39:23;92.22;;;45.22;;
45764;SDS011;31474;45.332;10.230;2023-02-22T16:41:49;99.20;;;46.47;;
45764;SDS011;31474;45.332;10.230;2023-02-22T16:44:16;102.18;;;47.20;;
45764;SDS011;31474;45.332;10.230;2023-02-22T16:46:42;99.03;;;47.05;;
45764;SDS011;31474;45.332;10.230;2023-02-22T16:49:11;100.13;;;46.65;;
45764;SDS011;31474;45.332;10.230;2023-02-22T16:51:47;88.65;;;43.95;;
45764;SDS011;31474;45.332;10.230;2023-02-22T16:54:22;99.65;;;48.47;;
45764;SDS011;31474;45.332;10.230;2023-02-22T16:56:51;89.00;;;46.20;;
45764;SDS011;31474;45.332;10.230;2023-02-22T16:59:20;96.50;;;47.60;;